Terminal Aerodrome Forecast
Issued by NWS

Home | Current Version | Previous Version | Text Only | Print | Product List | Glossary On
Versions: 1 2 3 4 5 6 7 8 9 10 11 12 13
000
FTUS43 KMQT 292320
TAFSAW
TAF
KSAW 292320Z 3000/3024 17003KT P6SM FEW060
     FM300500 20004KT P6SM SKC
     FM301000 22003KT 5SM BR FEW060
     FM301300 22005KT P6SM FEW100
     FM301600 22009KT P6SM FEW140=

USA.gov is the U.S. government's official web portal to all federal, state and local government web resources and services.